الصفحة الرئيسية
METAR-TAF:

METAR-TAF

مطار :

تشيناي, الهند

مطار تشيناي الدولي

دائرة عرض: 13-00N, خط طول: 080-11E, ارتفاع: 10 متر

مراقبة الطقس الحالي

تاريخ ووقت الإصدار 12 دقيقة قبل الساعة 16:00UTC
ريح 9 عقدة من الجنوب/الجنوب الشرقي
درجة الحرارة 31°درجة مئوية
الرطوبة 79%
ضغط 1009 hPa
الرؤية: 6000 متر
غيوم قليلة على ارتفاع 2000 قدم

METAR: VOMM 221600Z 15009KT 6000 FEW020 31/27 Q1009 NOSIG

زمن: 21:42 (16:12 UTC)

توقعات

تاريخ ووقت الإصدار 5ساعات و 12 دقيقة قبل الساعة 11:00UTC
التوقعات صالحة من22 الساعة 12 UTC إلى 23 الساعة 18 UTC
ريح 10 عقدة من الجنوب الشرقي
الرؤية: 6000 متر
غيوم قليلة على ارتفاع 2000 قدم
أصبح
من 23 الساعة 00 UTC إلى 23 الساعة 01 UTC
ريح 5 عقدة من الجنوب/الجنوب الغربي
أصبح
من 23 الساعة 03 UTC إلى 23 الساعة 04 UTC
ريح 10 عقدة من الجنوب الشرقي

TAF: VOMM 221100Z 2212/2318 14010KT 6000 FEW020 BECMG 2300/2301 21005KT BECMG 2303/2304 14010KT

أرصاد الطقس والتوقعات من أكثر من 4000 مطار (تقارير الطقس للمطار METAR والتنبؤ بالطقس بالمطارTAF).

المحطات المتاحة هي النقط الصفراء والحمراء على الخريطة.

حرك المؤشر فوق النقطة لمعرفة اسم المحطة.

ثم انقر لمعرفة أرصاد وتوقعات الطقس.

لتغيير الخارطة: اضغط على الأزرار الخضراء مع رمز الصليب الأسود للتكبير. على الزر الأخضر مع شرطة للتصغير، أو على الأسهم الخضراء للخرائط المجاورة.


METAR-TAF: